sensor_id;sensor_type;location;lat;lon;timestamp;temperature;humidity
1812;DHT22;904;47.814;11.134;2023-05-07T00:02:20;13.80;99.90
1812;DHT22;904;47.814;11.134;2023-05-07T00:04:49;13.70;99.90
1812;DHT22;904;47.814;11.134;2023-05-07T00:07:19;13.60;99.90
1812;DHT22;904;47.814;11.134;2023-05-07T00:09:46;13.60;99.90
1812;DHT22;904;47.814;11.134;2023-05-07T00:12:13;13.60;99.90
1812;DHT22;904;47.814;11.134;2023-05-07T00:14:40;13.60;99.90
1812;DHT22;904;47.814;11.134;2023-05-07T00:17:07;13.60;99.90
1812;DHT22;904;47.814;11.134;2023-05-07T00:19:36;13.60;99.90
1812;DHT22;904;47.814;11.134;2023-05-07T00:22:03;13.50;99.90
1812;DHT22;904;47.814;11.134;2023-05-07T00:24:30;13.50;99.90
1812;DHT22;904;47.814;11.134;2023-05-07T00:26:58;13.40;99.90
1812;DHT22;904;47.814;11.134;2023-05-07T00:29:27;13.30;99.90
1812;DHT22;904;47.814;11.134;2023-05-07T00:31:54;13.30;99.90
1812;DHT22;904;47.814;11.134;2023-05-07T00:34:21;13.30;99.90
1812;DHT22;904;47.814;11.134;2023-05-07T00:36:55;13.20;99.90
1812;DHT22;904;47.814;11.134;2023-05-07T00:39:22;13.30;99.90
1812;DHT22;904;47.814;11.134;2023-05-07T00:41:50;13.20;99.90
1812;DHT22;904;47.814;11.134;2023-05-07T00:44:19;13.20;99.90
1812;DHT22;904;47.814;11.134;2023-05-07T00:46:46;13.20;99.90
1812;DHT22;904;47.814;11.134;2023-05-07T00:49:17;13.20;99.90
1812;DHT22;904;47.814;11.134;2023-05-07T00:51:45;13.20;99.90
1812;DHT22;904;47.814;11.134;2023-05-07T00:54:14;13.20;99.90
1812;DHT22;904;47.814;11.134;2023-05-07T00:56:41;13.20;99.90
1812;DHT22;904;47.814;11.134;2023-05-07T00:59:10;13.20;99.90
1812;DHT22;904;47.814;11.134;2023-05-07T01:01:42;13.20;99.90
1812;DHT22;904;47.814;11.134;2023-05-07T01:04:09;13.20;99.90
1812;DHT22;904;47.814;11.134;2023-05-07T01:06:36;13.20;99.90
1812;DHT22;904;47.814;11.134;2023-05-07T01:09:04;13.30;99.90
1812;DHT22;904;47.814;11.134;2023-05-07T01:11:33;13.30;99.90
1812;DHT22;904;47.814;11.134;2023-05-07T01:14:00;13.30;99.90
1812;DHT22;904;47.814;11.134;2023-05-07T01:16:27;13.30;99.90
1812;DHT22;904;47.814;11.134;2023-05-07T01:18:54;13.30;99.90
1812;DHT22;904;47.814;11.134;2023-05-07T01:21:25;13.30;99.90
1812;DHT22;904;47.814;11.134;2023-05-07T01:23:55;13.20;99.90
1812;DHT22;904;47.814;11.134;2023-05-07T01:26:22;13.20;99.90
1812;DHT22;904;47.814;11.134;2023-05-07T01:28:51;13.20;99.90
1812;DHT22;904;47.814;11.134;2023-05-07T01:31:18;13.20;99.90
1812;DHT22;904;47.814;11.134;2023-05-07T01:33:48;13.20;99.90
1812;DHT22;904;47.814;11.134;2023-05-07T01:36:17;13.10;99.90
1812;DHT22;904;47.814;11.134;2023-05-07T01:38:45;13.10;99.90
1812;DHT22;904;47.814;11.134;2023-05-07T01:41:14;13.10;99.90
1812;DHT22;904;47.814;11.134;2023-05-07T01:43:41;13.10;99.90
1812;DHT22;904;47.814;11.134;2023-05-07T01:46:09;13.10;99.90
1812;DHT22;904;47.814;11.134;2023-05-07T01:48:37;13.10;99.90
1812;DHT22;904;47.814;11.134;2023-05-07T01:51:05;13.00;99.90
1812;DHT22;904;47.814;11.134;2023-05-07T01:53:37;13.00;99.90
1812;DHT22;904;47.814;11.134;2023-05-07T01:56:05;13.00;99.90
1812;DHT22;904;47.814;11.134;2023-05-07T01:58:34;12.90;99.90
1812;DHT22;904;47.814;11.134;2023-05-07T02:01:01;12.90;99.90
1812;DHT22;904;47.814;11.134;2023-05-07T02:03:28;12.80;99.90
1812;DHT22;904;47.814;11.134;2023-05-07T02:05:55;12.80;99.90
1812;DHT22;904;47.814;11.134;2023-05-07T02:08:27;12.70;99.90
1812;DHT22;904;47.814;11.134;2023-05-07T02:10:54;12.70;99.90
1812;DHT22;904;47.814;11.134;2023-05-07T02:13:21;12.70;99.90
1812;DHT22;904;47.814;11.134;2023-05-07T02:15:51;12.70;99.90
1812;DHT22;904;47.814;11.134;2023-05-07T02:18:19;12.70;99.90
1812;DHT22;904;47.814;11.134;2023-05-07T02:20:46;12.60;99.90
1812;DHT22;904;47.814;11.134;2023-05-07T02:23:13;12.60;99.90
1812;DHT22;904;47.814;11.134;2023-05-07T02:25:40;12.60;99.90
1812;DHT22;904;47.814;11.134;2023-05-07T02:28:12;12.60;99.90
1812;DHT22;904;47.814;11.134;2023-05-07T02:30:42;12.60;99.90
1812;DHT22;904;47.814;11.134;2023-05-07T02:33:10;12.60;99.90
1812;DHT22;904;47.814;11.134;2023-05-07T02:35:39;12.50;99.90
1812;DHT22;904;47.814;11.134;2023-05-07T02:38:08;12.50;99.90
1812;DHT22;904;47.814;11.134;2023-05-07T02:40:36;12.50;99.90
1812;DHT22;904;47.814;11.134;2023-05-07T02:43:05;12.50;99.90
1812;DHT22;904;47.814;11.134;2023-05-07T02:45:32;12.50;99.90
1812;DHT22;904;47.814;11.134;2023-05-07T02:47:59;12.40;99.90
1812;DHT22;904;47.814;11.134;2023-05-07T02:50:29;12.40;99.90
1812;DHT22;904;47.814;11.134;2023-05-07T02:52:56;12.40;99.90
1812;DHT22;904;47.814;11.134;2023-05-07T02:55:23;12.40;99.90
1812;DHT22;904;47.814;11.134;2023-05-07T02:57:50;12.40;99.90
1812;DHT22;904;47.814;11.134;2023-05-07T03:00:18;12.40;99.90
1812;DHT22;904;47.814;11.134;2023-05-07T03:02:46;12.40;99.90
1812;DHT22;904;47.814;11.134;2023-05-07T03:05:13;12.30;99.90
1812;DHT22;904;47.814;11.134;2023-05-07T03:07:46;12.30;99.90
1812;DHT22;904;47.814;11.134;2023-05-07T03:10:13;12.30;99.90
1812;DHT22;904;47.814;11.134;2023-05-07T03:12:40;12.30;99.90
1812;DHT22;904;47.814;11.134;2023-05-07T03:15:08;12.30;99.90
1812;DHT22;904;47.814;11.134;2023-05-07T03:17:36;12.20;99.90
1812;DHT22;904;47.814;11.134;2023-05-07T03:20:03;12.20;99.90
1812;DHT22;904;47.814;11.134;2023-05-07T03:22:30;12.20;99.90
1812;DHT22;904;47.814;11.134;2023-05-07T03:24:59;12.10;99.90
1812;DHT22;904;47.814;11.134;2023-05-07T03:27:26;12.10;99.90
1812;DHT22;904;47.814;11.134;2023-05-07T03:29:53;12.10;99.90
1812;DHT22;904;47.814;11.134;2023-05-07T03:32:25;12.10;99.90
1812;DHT22;904;47.814;11.134;2023-05-07T03:34:54;12.10;99.90
1812;DHT22;904;47.814;11.134;2023-05-07T03:37:23;12.10;99.90
1812;DHT22;904;47.814;11.134;2023-05-07T03:39:50;12.10;99.90
1812;DHT22;904;47.814;11.134;2023-05-07T03:42:18;12.00;99.90
1812;DHT22;904;47.814;11.134;2023-05-07T03:44:45;12.00;99.90
1812;DHT22;904;47.814;11.134;2023-05-07T03:47:12;12.00;99.90
1812;DHT22;904;47.814;11.134;2023-05-07T03:49:41;11.90;99.90
1812;DHT22;904;47.814;11.134;2023-05-07T03:52:10;11.90;99.90
1812;DHT22;904;47.814;11.134;2023-05-07T03:54:37;11.90;99.90
1812;DHT22;904;47.814;11.134;2023-05-07T03:57:08;11.90;99.90
1812;DHT22;904;47.814;11.134;2023-05-07T03:59:36;11.90;99.90
1812;DHT22;904;47.814;11.134;2023-05-07T04:02:05;11.80;99.90
1812;DHT22;904;47.814;11.134;2023-05-07T04:04:32;11.80;99.90
1812;DHT22;904;47.814;11.134;2023-05-07T04:07:00;11.70;99.90
1812;DHT22;904;47.814;11.134;2023-05-07T04:09:27;11.70;99.90
1812;DHT22;904;47.814;11.134;2023-05-07T04:11:55;11.70;99.90
1812;DHT22;904;47.814;11.134;2023-05-07T04:14:22;11.80;99.90
1812;DHT22;904;47.814;11.134;2023-05-07T04:16:51;11.70;99.90
1812;DHT22;904;47.814;11.134;2023-05-07T04:19:20;11.70;99.90
1812;DHT22;904;47.814;11.134;2023-05-07T04:21:47;11.70;99.90
1812;DHT22;904;47.814;11.134;2023-05-07T04:24:19;11.70;99.90
1812;DHT22;904;47.814;11.134;2023-05-07T04:26:46;11.70;99.90
1812;DHT22;904;47.814;11.134;2023-05-07T04:29:13;11.70;99.90
1812;DHT22;904;47.814;11.134;2023-05-07T04:31:42;11.70;99.90
1812;DHT22;904;47.814;11.134;2023-05-07T04:34:11;11.70;99.90
1812;DHT22;904;47.814;11.134;2023-05-07T04:36:41;11.80;99.90
1812;DHT22;904;47.814;11.134;2023-05-07T04:39:08;11.80;99.90
1812;DHT22;904;47.814;11.134;2023-05-07T04:41:36;11.90;99.90
1812;DHT22;904;47.814;11.134;2023-05-07T04:44:05;11.90;99.90
1812;DHT22;904;47.814;11.134;2023-05-07T04:46:32;11.90;99.90
1812;DHT22;904;47.814;11.134;2023-05-07T04:49:00;11.90;99.90
1812;DHT22;904;47.814;11.134;2023-05-07T04:51:28;12.00;99.90
1812;DHT22;904;47.814;11.134;2023-05-07T04:53:55;12.00;99.90
1812;DHT22;904;47.814;11.134;2023-05-07T04:56:22;12.00;99.90
1812;DHT22;904;47.814;11.134;2023-05-07T04:58:49;12.10;99.90
1812;DHT22;904;47.814;11.134;2023-05-07T05:01:16;12.20;99.90
1812;DHT22;904;47.814;11.134;2023-05-07T05:03:43;12.30;99.90
1812;DHT22;904;47.814;11.134;2023-05-07T05:06:11;12.30;99.90
1812;DHT22;904;47.814;11.134;2023-05-07T05:08:39;12.30;99.90
1812;DHT22;904;47.814;11.134;2023-05-07T05:11:06;12.40;99.90
1812;DHT22;904;47.814;11.134;2023-05-07T05:13:33;12.50;99.90
1812;DHT22;904;47.814;11.134;2023-05-07T05:16:00;12.60;99.90
1812;DHT22;904;47.814;11.134;2023-05-07T05:18:32;12.60;99.90
1812;DHT22;904;47.814;11.134;2023-05-07T05:20:59;12.70;99.90
1812;DHT22;904;47.814;11.134;2023-05-07T05:23:27;12.80;99.90
1812;DHT22;904;47.814;11.134;2023-05-07T05:25:57;12.90;99.90
1812;DHT22;904;47.814;11.134;2023-05-07T05:28:24;12.90;99.90
1812;DHT22;904;47.814;11.134;2023-05-07T05:30:51;13.10;99.90
1812;DHT22;904;47.814;11.134;2023-05-07T05:33:18;13.20;99.90
1812;DHT22;904;47.814;11.134;2023-05-07T05:35:45;13.30;99.90
1812;DHT22;904;47.814;11.134;2023-05-07T05:38:12;13.40;99.90
1812;DHT22;904;47.814;11.134;2023-05-07T05:40:39;13.50;99.90
1812;DHT22;904;47.814;11.134;2023-05-07T05:43:08;13.60;99.90
1812;DHT22;904;47.814;11.134;2023-05-07T05:45:35;13.70;99.90
1812;DHT22;904;47.814;11.134;2023-05-07T05:48:02;13.80;99.90
1812;DHT22;904;47.814;11.134;2023-05-07T05:50:29;13.90;99.90
1812;DHT22;904;47.814;11.134;2023-05-07T05:52:56;14.00;99.90
1812;DHT22;904;47.814;11.134;2023-05-07T05:55:23;14.20;99.90
1812;DHT22;904;47.814;11.134;2023-05-07T05:57:50;14.30;99.90
1812;DHT22;904;47.814;11.134;2023-05-07T06:00:19;14.30;99.90
1812;DHT22;904;47.814;11.134;2023-05-07T06:02:48;14.50;99.90
1812;DHT22;904;47.814;11.134;2023-05-07T06:05:15;14.60;99.90
1812;DHT22;904;47.814;11.134;2023-05-07T06:07:42;14.80;99.90
1812;DHT22;904;47.814;11.134;2023-05-07T06:10:12;15.00;99.90
1812;DHT22;904;47.814;11.134;2023-05-07T06:12:39;15.10;99.90
1812;DHT22;904;47.814;11.134;2023-05-07T06:15:06;15.20;99.90
1812;DHT22;904;47.814;11.134;2023-05-07T06:17:35;15.40;99.90
1812;DHT22;904;47.814;11.134;2023-05-07T06:20:03;15.40;99.90
1812;DHT22;904;47.814;11.134;2023-05-07T06:22:30;15.60;99.40
1812;DHT22;904;47.814;11.134;2023-05-07T06:24:57;15.70;98.60
1812;DHT22;904;47.814;11.134;2023-05-07T06:27:24;15.80;98.30
1812;DHT22;904;47.814;11.134;2023-05-07T06:29:51;15.90;97.50
1812;DHT22;904;47.814;11.134;2023-05-07T06:32:19;16.00;97.50
1812;DHT22;904;47.814;11.134;2023-05-07T06:34:47;16.20;96.70
1812;DHT22;904;47.814;11.134;2023-05-07T06:37:14;16.20;95.90
1812;DHT22;904;47.814;11.134;2023-05-07T06:39:41;16.30;95.60
1812;DHT22;904;47.814;11.134;2023-05-07T06:42:08;16.40;95.20
1812;DHT22;904;47.814;11.134;2023-05-07T06:44:35;16.50;95.20
1812;DHT22;904;47.814;11.134;2023-05-07T06:47:02;16.60;95.10
1812;DHT22;904;47.814;11.134;2023-05-07T06:49:33;16.70;95.70
1812;DHT22;904;47.814;11.134;2023-05-07T06:52:02;16.90;95.80
1812;DHT22;904;47.814;11.134;2023-05-07T06:54:29;17.20;94.90
1812;DHT22;904;47.814;11.134;2023-05-07T06:56:56;17.40;94.30
1812;DHT22;904;47.814;11.134;2023-05-07T06:59:23;17.50;93.70
1812;DHT22;904;47.814;11.134;2023-05-07T07:01:51;17.70;93.00
1812;DHT22;904;47.814;11.134;2023-05-07T07:04:19;17.70;92.50
1812;DHT22;904;47.814;11.134;2023-05-07T07:06:48;17.80;92.40
1812;DHT22;904;47.814;11.134;2023-05-07T07:09:25;18.00;92.50
1812;DHT22;904;47.814;11.134;2023-05-07T07:11:52;18.20;92.70
1812;DHT22;904;47.814;11.134;2023-05-07T07:14:19;18.40;92.60
1812;DHT22;904;47.814;11.134;2023-05-07T07:16:46;18.60;92.70
1812;DHT22;904;47.814;11.134;2023-05-07T07:19:13;18.80;92.00
1812;DHT22;904;47.814;11.134;2023-05-07T07:21:44;19.00;91.20
1812;DHT22;904;47.814;11.134;2023-05-07T07:24:16;19.10;90.80
1812;DHT22;904;47.814;11.134;2023-05-07T07:26:48;19.40;90.10
1812;DHT22;904;47.814;11.134;2023-05-07T07:29:15;19.60;86.80
1812;DHT22;904;47.814;11.134;2023-05-07T07:31:42;19.80;87.50
1812;DHT22;904;47.814;11.134;2023-05-07T07:34:09;19.90;87.90
1812;DHT22;904;47.814;11.134;2023-05-07T07:36:42;20.10;86.70
1812;DHT22;904;47.814;11.134;2023-05-07T07:39:11;20.30;86.60
1812;DHT22;904;47.814;11.134;2023-05-07T07:41:38;20.40;84.20
1812;DHT22;904;47.814;11.134;2023-05-07T07:44:06;20.60;82.20
1812;DHT22;904;47.814;11.134;2023-05-07T07:46:34;20.80;81.10
1812;DHT22;904;47.814;11.134;2023-05-07T07:49:05;21.00;80.50
1812;DHT22;904;47.814;11.134;2023-05-07T07:51:32;21.10;77.30
1812;DHT22;904;47.814;11.134;2023-05-07T07:53:59;21.30;79.00
1812;DHT22;904;47.814;11.134;2023-05-07T07:56:28;21.50;79.10
1812;DHT22;904;47.814;11.134;2023-05-07T07:58:55;21.70;80.00
1812;DHT22;904;47.814;11.134;2023-05-07T08:01:24;21.90;78.40
1812;DHT22;904;47.814;11.134;2023-05-07T08:03:51;22.10;77.10
1812;DHT22;904;47.814;11.134;2023-05-07T08:06:18;22.30;75.90
1812;DHT22;904;47.814;11.134;2023-05-07T08:08:45;22.50;75.20
1812;DHT22;904;47.814;11.134;2023-05-07T08:11:12;22.70;75.10
1812;DHT22;904;47.814;11.134;2023-05-07T08:13:44;22.90;73.70
1812;DHT22;904;47.814;11.134;2023-05-07T08:16:11;23.00;71.70
1812;DHT22;904;47.814;11.134;2023-05-07T08:18:43;23.20;71.70
1812;DHT22;904;47.814;11.134;2023-05-07T08:21:12;23.30;70.80
1812;DHT22;904;47.814;11.134;2023-05-07T08:23:39;23.40;69.50
1812;DHT22;904;47.814;11.134;2023-05-07T08:26:08;23.50;70.50
1812;DHT22;904;47.814;11.134;2023-05-07T08:28:38;23.70;69.90
1812;DHT22;904;47.814;11.134;2023-05-07T08:31:05;23.90;68.90
1812;DHT22;904;47.814;11.134;2023-05-07T08:33:33;24.00;65.00
1812;DHT22;904;47.814;11.134;2023-05-07T08:36:01;24.10;65.90
1812;DHT22;904;47.814;11.134;2023-05-07T08:38:28;24.30;65.80
1812;DHT22;904;47.814;11.134;2023-05-07T08:40:56;24.50;65.30
1812;DHT22;904;47.814;11.134;2023-05-07T08:43:26;24.70;63.50
1812;DHT22;904;47.814;11.134;2023-05-07T08:46:01;24.80;61.20
1812;DHT22;904;47.814;11.134;2023-05-07T08:48:29;24.90;59.50
1812;DHT22;904;47.814;11.134;2023-05-07T08:50:58;25.10;60.20
1812;DHT22;904;47.814;11.134;2023-05-07T08:53:26;25.30;61.30
1812;DHT22;904;47.814;11.134;2023-05-07T08:55:55;25.50;60.40
1812;DHT22;904;47.814;11.134;2023-05-07T08:58:23;25.70;56.50
1812;DHT22;904;47.814;11.134;2023-05-07T09:00:50;25.90;56.00
1812;DHT22;904;47.814;11.134;2023-05-07T09:03:22;26.10;57.70
1812;DHT22;904;47.814;11.134;2023-05-07T09:05:49;26.20;55.60
1812;DHT22;904;47.814;11.134;2023-05-07T09:08:16;26.50;56.20
1812;DHT22;904;47.814;11.134;2023-05-07T09:10:44;26.70;54.90
1812;DHT22;904;47.814;11.134;2023-05-07T09:13:13;26.90;54.70
1812;DHT22;904;47.814;11.134;2023-05-07T09:15:41;27.10;53.40
1812;DHT22;904;47.814;11.134;2023-05-07T09:18:08;27.20;51.20
1812;DHT22;904;47.814;11.134;2023-05-07T09:20:36;27.30;50.50
1812;DHT22;904;47.814;11.134;2023-05-07T09:23:03;27.40;48.60
1812;DHT22;904;47.814;11.134;2023-05-07T09:25:33;27.50;46.90
1812;DHT22;904;47.814;11.134;2023-05-07T09:28:03;27.40;47.40
1812;DHT22;904;47.814;11.134;2023-05-07T09:30:31;27.50;46.20
1812;DHT22;904;47.814;11.134;2023-05-07T09:32:59;27.50;47.40
1812;DHT22;904;47.814;11.134;2023-05-07T09:35:31;27.70;45.50
1812;DHT22;904;47.814;11.134;2023-05-07T09:38:02;27.70;45.80
1812;DHT22;904;47.814;11.134;2023-05-07T09:40:30;27.80;45.50
1812;DHT22;904;47.814;11.134;2023-05-07T09:43:10;27.90;45.90
1812;DHT22;904;47.814;11.134;2023-05-07T09:45:37;28.10;47.10
1812;DHT22;904;47.814;11.134;2023-05-07T09:48:05;28.20;42.20
1812;DHT22;904;47.814;11.134;2023-05-07T09:50:36;28.30;42.20
1812;DHT22;904;47.814;11.134;2023-05-07T09:53:07;28.40;42.40
1812;DHT22;904;47.814;11.134;2023-05-07T09:55:37;28.60;41.30
1812;DHT22;904;47.814;11.134;2023-05-07T09:58:05;28.60;40.30
1812;DHT22;904;47.814;11.134;2023-05-07T10:00:35;28.70;40.70
1812;DHT22;904;47.814;11.134;2023-05-07T10:03:03;28.60;40.90
1812;DHT22;904;47.814;11.134;2023-05-07T10:05:31;28.60;43.60
1812;DHT22;904;47.814;11.134;2023-05-07T10:07:59;28.70;40.70
1812;DHT22;904;47.814;11.134;2023-05-07T10:10:27;28.70;41.40
1812;DHT22;904;47.814;11.134;2023-05-07T10:12:56;28.70;38.70
1812;DHT22;904;47.814;11.134;2023-05-07T10:15:25;28.70;40.00
1812;DHT22;904;47.814;11.134;2023-05-07T10:17:55;28.70;39.20
1812;DHT22;904;47.814;11.134;2023-05-07T10:20:22;28.70;39.30
1812;DHT22;904;47.814;11.134;2023-05-07T10:22:52;28.70;39.10
1812;DHT22;904;47.814;11.134;2023-05-07T10:25:23;28.70;38.00
1812;DHT22;904;47.814;11.134;2023-05-07T10:27:52;28.80;39.50
1812;DHT22;904;47.814;11.134;2023-05-07T10:30:26;28.90;38.40
1812;DHT22;904;47.814;11.134;2023-05-07T10:33:02;29.10;39.20
1812;DHT22;904;47.814;11.134;2023-05-07T10:35:36;29.20;41.30
1812;DHT22;904;47.814;11.134;2023-05-07T10:38:06;29.30;40.90
1812;DHT22;904;47.814;11.134;2023-05-07T10:40:34;29.50;41.00
1812;DHT22;904;47.814;11.134;2023-05-07T10:43:02;29.70;40.60
1812;DHT22;904;47.814;11.134;2023-05-07T10:45:32;29.90;39.40
1812;DHT22;904;47.814;11.134;2023-05-07T10:48:07;30.00;40.80
1812;DHT22;904;47.814;11.134;2023-05-07T10:50:35;30.00;39.70
1812;DHT22;904;47.814;11.134;2023-05-07T10:53:22;30.10;39.10
1812;DHT22;904;47.814;11.134;2023-05-07T10:56:25;30.20;39.40
1812;DHT22;904;47.814;11.134;2023-05-07T10:58:55;30.30;39.50
1812;DHT22;904;47.814;11.134;2023-05-07T11:01:50;30.30;38.80
1812;DHT22;904;47.814;11.134;2023-05-07T11:04:19;30.30;38.40
1812;DHT22;904;47.814;11.134;2023-05-07T11:07:21;30.20;37.10
1812;DHT22;904;47.814;11.134;2023-05-07T11:10:04;30.30;36.80
1812;DHT22;904;47.814;11.134;2023-05-07T11:12:53;30.20;35.60
1812;DHT22;904;47.814;11.134;2023-05-07T11:15:42;30.30;36.40
1812;DHT22;904;47.814;11.134;2023-05-07T11:18:11;30.40;36.90
1812;DHT22;904;47.814;11.134;2023-05-07T11:20:51;30.40;35.30
1812;DHT22;904;47.814;11.134;2023-05-07T11:23:55;30.40;34.70
1812;DHT22;904;47.814;11.134;2023-05-07T11:26:23;30.40;35.20
1812;DHT22;904;47.814;11.134;2023-05-07T11:28:54;30.50;36.10
1812;DHT22;904;47.814;11.134;2023-05-07T11:31:23;30.50;34.30
1812;DHT22;904;47.814;11.134;2023-05-07T11:33:52;30.40;34.00
1812;DHT22;904;47.814;11.134;2023-05-07T11:36:21;30.30;34.40
1812;DHT22;904;47.814;11.134;2023-05-07T11:38:54;30.20;34.90
1812;DHT22;904;47.814;11.134;2023-05-07T11:41:21;30.10;34.40
1812;DHT22;904;47.814;11.134;2023-05-07T11:43:58;30.20;35.80
1812;DHT22;904;47.814;11.134;2023-05-07T11:46:28;30.30;36.40
1812;DHT22;904;47.814;11.134;2023-05-07T11:48:58;30.40;36.50
1812;DHT22;904;47.814;11.134;2023-05-07T11:51:26;30.40;35.70
1812;DHT22;904;47.814;11.134;2023-05-07T11:53:55;30.30;35.60
1812;DHT22;904;47.814;11.134;2023-05-07T11:56:22;30.30;35.00
1812;DHT22;904;47.814;11.134;2023-05-07T11:58:54;30.20;36.30
1812;DHT22;904;47.814;11.134;2023-05-07T12:01:23;30.10;36.20
1812;DHT22;904;47.814;11.134;2023-05-07T12:03:50;29.90;36.90
1812;DHT22;904;47.814;11.134;2023-05-07T12:06:23;29.80;36.60
1812;DHT22;904;47.814;11.134;2023-05-07T12:08:57;29.60;35.50
1812;DHT22;904;47.814;11.134;2023-05-07T12:11:25;29.50;35.90
1812;DHT22;904;47.814;11.134;2023-05-07T12:13:53;29.40;36.50
1812;DHT22;904;47.814;11.134;2023-05-07T12:16:21;29.30;37.50
1812;DHT22;904;47.814;11.134;2023-05-07T12:18:50;29.10;37.20
1812;DHT22;904;47.814;11.134;2023-05-07T12:21:18;28.80;36.30
1812;DHT22;904;47.814;11.134;2023-05-07T12:23:45;28.40;37.40
1812;DHT22;904;47.814;11.134;2023-05-07T12:26:14;28.20;37.00
1812;DHT22;904;47.814;11.134;2023-05-07T12:28:46;27.90;37.10
1812;DHT22;904;47.814;11.134;2023-05-07T12:31:14;27.60;38.50
1812;DHT22;904;47.814;11.134;2023-05-07T12:33:46;27.40;39.00
1812;DHT22;904;47.814;11.134;2023-05-07T12:36:15;27.10;38.80
1812;DHT22;904;47.814;11.134;2023-05-07T12:38:44;26.90;38.80
1812;DHT22;904;47.814;11.134;2023-05-07T12:41:11;26.70;39.30
1812;DHT22;904;47.814;11.134;2023-05-07T12:43:44;26.50;39.60
1812;DHT22;904;47.814;11.134;2023-05-07T12:46:12;26.30;39.90
1812;DHT22;904;47.814;11.134;2023-05-07T12:48:44;26.20;41.00
1812;DHT22;904;47.814;11.134;2023-05-07T12:51:12;26.10;41.20
1812;DHT22;904;47.814;11.134;2023-05-07T12:53:41;26.00;42.00
1812;DHT22;904;47.814;11.134;2023-05-07T12:56:09;25.90;41.10
1812;DHT22;904;47.814;11.134;2023-05-07T12:58:38;25.80;42.70
1812;DHT22;904;47.814;11.134;2023-05-07T13:01:07;25.60;43.30
1812;DHT22;904;47.814;11.134;2023-05-07T13:03:36;25.50;40.20
1812;DHT22;904;47.814;11.134;2023-05-07T13:06:05;25.30;40.50
1812;DHT22;904;47.814;11.134;2023-05-07T13:08:34;25.20;40.80
1812;DHT22;904;47.814;11.134;2023-05-07T13:11:03;25.10;42.50
1812;DHT22;904;47.814;11.134;2023-05-07T13:13:30;24.90;42.30
1812;DHT22;904;47.814;11.134;2023-05-07T13:15:57;24.80;43.70
1812;DHT22;904;47.814;11.134;2023-05-07T13:18:29;24.70;44.10
1812;DHT22;904;47.814;11.134;2023-05-07T13:20:56;24.60;44.00
1812;DHT22;904;47.814;11.134;2023-05-07T13:23:23;24.40;43.90
1812;DHT22;904;47.814;11.134;2023-05-07T13:25:52;24.30;44.50
1812;DHT22;904;47.814;11.134;2023-05-07T13:28:20;24.10;44.50
1812;DHT22;904;47.814;11.134;2023-05-07T13:30:47;24.00;45.00
1812;DHT22;904;47.814;11.134;2023-05-07T13:33:14;23.90;45.60
1812;DHT22;904;47.814;11.134;2023-05-07T13:35:44;23.80;46.40
1812;DHT22;904;47.814;11.134;2023-05-07T13:38:11;23.70;46.70
1812;DHT22;904;47.814;11.134;2023-05-07T13:40:38;23.60;46.60
1812;DHT22;904;47.814;11.134;2023-05-07T13:43:06;23.60;46.50
1812;DHT22;904;47.814;11.134;2023-05-07T13:45:33;23.50;46.80
1812;DHT22;904;47.814;11.134;2023-05-07T13:48:00;23.40;47.90
1812;DHT22;904;47.814;11.134;2023-05-07T13:50:27;23.40;49.10
1812;DHT22;904;47.814;11.134;2023-05-07T13:52:56;23.20;49.80
1812;DHT22;904;47.814;11.134;2023-05-07T13:55:24;23.10;51.10
1812;DHT22;904;47.814;11.134;2023-05-07T13:57:55;22.90;51.60
1812;DHT22;904;47.814;11.134;2023-05-07T14:00:23;22.50;52.20
1812;DHT22;904;47.814;11.134;2023-05-07T14:02:50;22.30;53.10
1812;DHT22;904;47.814;11.134;2023-05-07T14:05:17;22.00;53.90
1812;DHT22;904;47.814;11.134;2023-05-07T14:07:44;21.70;54.40
1812;DHT22;904;47.814;11.134;2023-05-07T14:10:13;21.60;55.70
1812;DHT22;904;47.814;11.134;2023-05-07T14:12:40;21.50;56.20
1812;DHT22;904;47.814;11.134;2023-05-07T14:15:08;21.40;57.10
1812;DHT22;904;47.814;11.134;2023-05-07T14:17:40;21.40;58.20
1812;DHT22;904;47.814;11.134;2023-05-07T14:20:08;21.20;59.40
1812;DHT22;904;47.814;11.134;2023-05-07T14:22:36;21.10;61.60
1812;DHT22;904;47.814;11.134;2023-05-07T14:25:03;21.00;65.00
1812;DHT22;904;47.814;11.134;2023-05-07T14:27:32;21.00;68.10
1812;DHT22;904;47.814;11.134;2023-05-07T14:29:59;21.00;69.80
1812;DHT22;904;47.814;11.134;2023-05-07T14:32:28;20.90;71.80
1812;DHT22;904;47.814;11.134;2023-05-07T14:34:55;20.80;72.10
1812;DHT22;904;47.814;11.134;2023-05-07T14:37:22;20.70;72.20
1812;DHT22;904;47.814;11.134;2023-05-07T14:39:49;20.70;71.60
1812;DHT22;904;47.814;11.134;2023-05-07T14:42:17;20.90;72.20
1812;DHT22;904;47.814;11.134;2023-05-07T14:44:46;21.10;71.10
1812;DHT22;904;47.814;11.134;2023-05-07T14:47:14;21.20;65.80
1812;DHT22;904;47.814;11.134;2023-05-07T14:49:41;21.40;64.30
1812;DHT22;904;47.814;11.134;2023-05-07T14:52:08;21.40;66.10
1812;DHT22;904;47.814;11.134;2023-05-07T14:54:37;21.60;68.10
1812;DHT22;904;47.814;11.134;2023-05-07T14:57:05;21.70;66.80
1812;DHT22;904;47.814;11.134;2023-05-07T14:59:33;21.70;67.30
1812;DHT22;904;47.814;11.134;2023-05-07T15:02:01;21.90;66.60
1812;DHT22;904;47.814;11.134;2023-05-07T15:04:30;22.00;64.50
1812;DHT22;904;47.814;11.134;2023-05-07T15:06:57;22.10;66.70
1812;DHT22;904;47.814;11.134;2023-05-07T15:09:24;22.20;60.00
1812;DHT22;904;47.814;11.134;2023-05-07T15:11:54;22.20;60.70
1812;DHT22;904;47.814;11.134;2023-05-07T15:14:23;22.20;60.90
1812;DHT22;904;47.814;11.134;2023-05-07T15:16:50;22.20;62.00
1812;DHT22;904;47.814;11.134;2023-05-07T15:19:18;22.20;59.50
1812;DHT22;904;47.814;11.134;2023-05-07T15:21:47;22.20;60.60
1812;DHT22;904;47.814;11.134;2023-05-07T15:24:15;22.20;58.40
1812;DHT22;904;47.814;11.134;2023-05-07T15:26:42;22.10;58.00
1812;DHT22;904;47.814;11.134;2023-05-07T15:29:14;22.10;56.20
1812;DHT22;904;47.814;11.134;2023-05-07T15:31:42;22.00;58.20
1812;DHT22;904;47.814;11.134;2023-05-07T15:34:11;22.00;57.20
1812;DHT22;904;47.814;11.134;2023-05-07T15:36:39;22.00;58.50
1812;DHT22;904;47.814;11.134;2023-05-07T15:39:08;21.80;56.50
1812;DHT22;904;47.814;11.134;2023-05-07T15:41:41;21.70;56.90
1812;DHT22;904;47.814;11.134;2023-05-07T15:44:08;21.50;56.90
1812;DHT22;904;47.814;11.134;2023-05-07T15:46:51;21.40;56.10
1812;DHT22;904;47.814;11.134;2023-05-07T15:49:19;21.20;57.10
1812;DHT22;904;47.814;11.134;2023-05-07T15:51:49;21.00;57.10
1812;DHT22;904;47.814;11.134;2023-05-07T15:54:22;21.00;57.30
1812;DHT22;904;47.814;11.134;2023-05-07T15:56:50;20.80;57.00
1812;DHT22;904;47.814;11.134;2023-05-07T15:59:19;20.70;57.70
1812;DHT22;904;47.814;11.134;2023-05-07T16:01:46;20.70;57.30
1812;DHT22;904;47.814;11.134;2023-05-07T16:04:17;20.60;58.10
1812;DHT22;904;47.814;11.134;2023-05-07T16:06:46;20.50;58.60
1812;DHT22;904;47.814;11.134;2023-05-07T16:09:18;20.50;59.00
1812;DHT22;904;47.814;11.134;2023-05-07T16:11:45;20.50;59.60
1812;DHT22;904;47.814;11.134;2023-05-07T16:14:12;20.50;60.20